Time;durP1;ratioP1;P1;durP2;ratioP2;P2;SDS_P1;SDS_P2;PMS_P1;PMS_P2;Temp;Humidity;BMP_temperature;BMP_pressure;BME280_temperature;BME280_humidity;BME280_pressure;Samples;Min_cycle;Max_cycle;Signal;HPM_P1;HPM_P2
2022/09/22 00:01:02;;;;;;;;;;;12.10;62.00;;;;;;5020868;28;92103;-42
2022/09/22 00:03:31;;;;;;;;;;;12.10;62.00;;;;;;5021304;28;92351;-42
2022/09/22 00:06:01;;;;;;;;;;;12.10;61.90;;;;;;5020585;28;93077;-42
2022/09/22 00:08:27;;;;;;;;;;;12.10;61.90;;;;;;5020567;28;92740;-42
2022/09/22 00:11:00;;;;;;;;;;;12.10;62.00;;;;;;5021120;28;92291;-42
2022/09/22 00:13:25;;;;;;;;;;;12.00;62.10;;;;;;5020875;28;92428;-42
2022/09/22 00:15:51;;;;;;;;;;;12.00;62.10;;;;;;5024037;28;91988;-42
2022/09/22 00:18:16;;;;;;;;;;;12.00;62.10;;;;;;5020348;28;93419;-42
2022/09/22 00:20:41;;;;;;;;;;;12.00;62.10;;;;;;5020236;28;93042;-42
2022/09/22 00:23:07;;;;;;;;;;;12.00;62.10;;;;;;5021173;28;93289;-42
2022/09/22 00:25:33;;;;;;;;;;;12.00;62.00;;;;;;5020277;28;93262;-42
2022/09/22 00:27:59;;;;;;;;;;;12.00;62.00;;;;;;5020675;28;91971;-42
2022/09/22 00:30:24;;;;;;;;;;;12.00;62.10;;;;;;5020770;28;92441;-42
2022/09/22 00:32:50;;;;;;;;;;;12.00;62.00;;;;;;5020264;28;93248;-42
2022/09/22 00:35:15;;;;;;;;;;;12.00;62.10;;;;;;5020481;28;92253;-42
2022/09/22 00:37:41;;;;;;;;;;;12.00;62.10;;;;;;5023786;28;92313;-42
2022/09/22 00:40:08;;;;;;;;;;;12.00;62.20;;;;;;5020695;28;92131;-42
2022/09/22 00:42:34;;;;;;;;;;;12.00;62.20;;;;;;5020407;28;92527;-42
2022/09/22 00:45:00;;;;;;;;;;;12.00;62.30;;;;;;5019244;28;94227;-42
2022/09/22 00:47:26;;;;;;;;;;;12.00;62.20;;;;;;5020399;28;92099;-42
2022/09/22 00:50:06;;;;;;;;;;;12.00;62.10;;;;;;5020483;28;92477;-42
2022/09/22 00:52:37;;;;;;;;;;;12.00;62.20;;;;;;5019931;28;92939;-42
2022/09/22 00:55:06;;;;;;;;;;;12.00;62.20;;;;;;5020215;28;92043;-42
2022/09/22 00:57:33;;;;;;;;;;;11.90;62.20;;;;;;5020085;28;92815;-42
2022/09/22 01:00:01;;;;;;;;;;;11.90;62.20;;;;;;5022645;28;93069;-42
2022/09/22 01:02:26;;;;;;;;;;;11.90;62.30;;;;;;5020743;28;92599;-42
2022/09/22 01:04:52;;;;;;;;;;;12.00;62.20;;;;;;5019613;28;93023;-42
2022/09/22 01:07:20;;;;;;;;;;;11.90;62.20;;;;;;5020309;28;92054;-42
2022/09/22 01:09:45;;;;;;;;;;;11.90;62.20;;;;;;5019172;28;92810;-42
2022/09/22 01:12:11;;;;;;;;;;;11.90;62.30;;;;;;5019690;28;93267;-42
2022/09/22 01:14:56;;;;;;;;;;;11.90;62.30;;;;;;5020128;28;92114;-42
2022/09/22 01:17:37;;;;;;;;;;;11.90;62.30;;;;;;5020146;28;92496;-42
2022/09/22 01:20:22;;;;;;;;;;;11.90;62.30;;;;;;5019357;28;92140;-42
2022/09/22 01:22:48;;;;;;;;;;;11.90;62.30;;;;;;5022958;28;92118;-42
2022/09/22 01:25:14;;;;;;;;;;;11.90;62.30;;;;;;5019275;28;93041;-42
2022/09/22 01:27:54;;;;;;;;;;;11.90;62.40;;;;;;5019984;28;91425;-42
2022/09/22 01:30:21;;;;;;;;;;;11.80;62.40;;;;;;5019795;28;91947;-42
2022/09/22 01:33:05;;;;;;;;;;;11.90;62.40;;;;;;5019300;28;93028;-42
2022/09/22 01:35:30;;;;;;;;;;;11.80;62.20;;;;;;5018958;28;93049;-42
2022/09/22 01:38:05;;;;;;;;;;;11.80;62.40;;;;;;5019732;28;93325;-42
2022/09/22 01:40:48;;;;;;;;;;;11.80;62.40;;;;;;5019025;28;92756;-42
2022/09/22 01:43:18;;;;;;;;;;;11.80;62.30;;;;;;5019545;28;92064;-43
2022/09/22 01:45:47;;;;;;;;;;;11.80;62.30;;;;;;5022319;28;92284;-42
2022/09/22 01:48:21;;;;;;;;;;;11.80;62.40;;;;;;5019663;28;92154;-42
2022/09/22 01:50:52;;;;;;;;;;;11.80;62.40;;;;;;5019365;28;92470;-42
2022/09/22 01:53:21;;;;;;;;;;;11.80;62.40;;;;;;5019298;28;92411;-42
2022/09/22 01:55:50;;;;;;;;;;;11.70;62.40;;;;;;5018991;28;92104;-42
2022/09/22 01:58:17;;;;;;;;;;;11.70;62.50;;;;;;5019474;28;92197;-43
2022/09/22 02:00:46;;;;;;;;;;;11.70;62.50;;;;;;5018268;28;93986;-42
2022/09/22 02:03:14;;;;;;;;;;;11.70;62.40;;;;;;5019510;28;92080;-42
2022/09/22 02:05:47;;;;;;;;;;;11.70;62.40;;;;;;5019377;28;92571;-42
2022/09/22 02:08:17;;;;;;;;;;;11.70;62.40;;;;;;5021127;28;93085;-42
2022/09/22 02:10:44;;;;;;;;;;;11.70;62.50;;;;;;5019360;28;92424;-42
2022/09/22 02:13:10;;;;;;;;;;;11.70;62.50;;;;;;5018894;28;92665;-42
2022/09/22 02:18:23;;;;;;;;;;;11.70;62.50;;;;;;5019838;28;91655;-42
2022/09/22 02:20:49;;;;;;;;;;;11.70;62.40;;;;;;5018200;28;92176;-42
2022/09/22 02:23:15;;;;;;;;;;;11.70;62.40;;;;;;5019075;28;92115;-43
2022/09/22 02:25:41;;;;;;;;;;;11.70;62.40;;;;;;5018698;28;92938;-42
2022/09/22 02:28:08;;;;;;;;;;;11.60;62.40;;;;;;5021745;28;93175;-42
2022/09/22 02:30:34;;;;;;;;;;;11.70;62.40;;;;;;5019078;28;92515;-42
2022/09/22 02:32:59;;;;;;;;;;;11.70;62.30;;;;;;5018557;28;93209;-42
2022/09/22 02:35:28;;;;;;;;;;;11.70;62.30;;;;;;5018489;28;92114;-42
2022/09/22 02:38:08;;;;;;;;;;;11.70;62.30;;;;;;5018891;28;92330;-42
2022/09/22 02:40:37;;;;;;;;;;;11.70;62.20;;;;;;5020814;28;93054;-42
2022/09/22 02:43:09;;;;;;;;;;;11.60;62.20;;;;;;5023115;28;91417;-42
2022/09/22 02:45:53;;;;;;;;;;;11.60;62.30;;;;;;5022179;28;92026;-42
2022/09/22 02:48:23;;;;;;;;;;;11.60;62.30;;;;;;5021842;28;93049;-42
2022/09/22 02:50:50;;;;;;;;;;;11.60;62.30;;;;;;5024679;28;93150;-42
2022/09/22 02:53:16;;;;;;;;;;;11.60;62.20;;;;;;5021809;28;93168;-42
2022/09/22 02:55:43;;;;;;;;;;;11.60;62.20;;;;;;5022422;28;92096;-42
2022/09/22 02:58:08;;;;;;;;;;;11.60;62.20;;;;;;5022338;28;92022;-42
2022/09/22 03:00:34;;;;;;;;;;;11.60;62.20;;;;;;5021313;28;93088;-42
2022/09/22 03:02:59;;;;;;;;;;;11.60;62.30;;;;;;5022328;28;92104;-42
2022/09/22 03:05:25;;;;;;;;;;;11.60;62.30;;;;;;5022079;28;92377;-42
2022/09/22 03:07:51;;;;;;;;;;;11.60;62.40;;;;;;5022065;28;92259;-42
2022/09/22 03:10:16;;;;;;;;;;;11.60;62.30;;;;;;5022032;28;92300;-42
2022/09/22 03:12:42;;;;;;;;;;;11.60;62.20;;;;;;5024631;28;92401;-42
2022/09/22 03:15:10;;;;;;;;;;;11.60;62.40;;;;;;5021081;28;93155;-42
2022/09/22 03:17:35;;;;;;;;;;;11.60;62.30;;;;;;5021831;28;93427;-42
2022/09/22 03:20:01;;;;;;;;;;;11.60;62.20;;;;;;5021415;28;93077;-42
2022/09/22 03:22:27;;;;;;;;;;;11.60;62.30;;;;;;5021835;28;92104;-42
2022/09/22 03:24:52;;;;;;;;;;;11.60;62.10;;;;;;5021639;28;92511;-42
2022/09/22 03:27:18;;;;;;;;;;;11.60;62.20;;;;;;5021453;28;93203;-42
2022/09/22 03:29:43;;;;;;;;;;;11.50;62.10;;;;;;5021711;28;92348;-42
2022/09/22 03:32:09;;;;;;;;;;;11.50;62.20;;;;;;5022181;28;92816;-42
2022/09/22 03:34:34;;;;;;;;;;;11.50;62.20;;;;;;5024045;28;92999;-42
2022/09/22 03:37:00;;;;;;;;;;;11.50;62.20;;;;;;5021625;28;92046;-42
2022/09/22 03:39:25;;;;;;;;;;;11.50;62.20;;;;;;5020278;28;94048;-42
2022/09/22 03:41:51;;;;;;;;;;;11.50;62.20;;;;;;5021476;28;92096;-42
2022/09/22 03:44:16;;;;;;;;;;;11.50;62.20;;;;;;5021608;28;92287;-42
2022/09/22 03:46:42;;;;;;;;;;;11.50;62.30;;;;;;5020798;28;92951;-42
2022/09/22 03:49:08;;;;;;;;;;;11.40;62.30;;;;;;5021494;28;92005;-42
2022/09/22 03:51:33;;;;;;;;;;;11.40;62.30;;;;;;5020676;28;92355;-42
2022/09/22 03:53:59;;;;;;;;;;;11.40;62.40;;;;;;5020796;28;93017;-42
2022/09/22 03:56:25;;;;;;;;;;;11.40;62.20;;;;;;5024848;28;91598;-42
2022/09/22 03:58:50;;;;;;;;;;;11.40;62.20;;;;;;5020860;28;93305;-42
2022/09/22 04:01:16;;;;;;;;;;;11.40;62.30;;;;;;5020933;28;92150;-42
2022/09/22 04:03:41;;;;;;;;;;;11.40;62.40;;;;;;5020682;28;93013;-42
2022/09/22 04:06:07;;;;;;;;;;;11.40;62.30;;;;;;5020604;28;92990;-42
2022/09/22 04:08:33;;;;;;;;;;;11.40;62.30;;;;;;5020478;28;92237;-42
2022/09/22 04:10:59;;;;;;;;;;;11.40;62.30;;;;;;5021170;28;92388;-42
2022/09/22 04:13:25;;;;;;;;;;;11.40;62.40;;;;;;5020619;28;93007;-42
2022/09/22 04:15:51;;;;;;;;;;;11.40;62.40;;;;;;5020882;28;92168;-42
2022/09/22 04:18:16;;;;;;;;;;;11.40;62.40;;;;;;5023559;28;92574;-42
2022/09/22 04:20:43;;;;;;;;;;;11.30;62.40;;;;;;5021748;28;92161;-42
2022/09/22 04:23:09;;;;;;;;;;;11.40;62.40;;;;;;5020985;28;92042;-42
2022/09/22 04:25:35;;;;;;;;;;;11.40;62.30;;;;;;5020234;28;93227;-42
2022/09/22 04:28:01;;;;;;;;;;;11.40;62.30;;;;;;5020144;28;93011;-42
2022/09/22 04:30:26;;;;;;;;;;;11.40;62.30;;;;;;5020547;28;92457;-42
2022/09/22 04:32:52;;;;;;;;;;;11.30;62.30;;;;;;5020221;28;93155;-42
2022/09/22 04:35:17;;;;;;;;;;;11.30;62.30;;;;;;5020272;28;92244;-42
2022/09/22 04:37:43;;;;;;;;;;;11.30;62.30;;;;;;5023368;28;92446;-42
2022/09/22 04:40:10;;;;;;;;;;;11.30;62.30;;;;;;5020681;28;92336;-42
2022/09/22 04:42:36;;;;;;;;;;;11.30;62.40;;;;;;5020432;28;92446;-42
2022/09/22 04:45:02;;;;;;;;;;;11.30;62.50;;;;;;5020455;28;92395;-42
2022/09/22 04:47:28;;;;;;;;;;;11.30;62.50;;;;;;5020546;28;92100;-42
2022/09/22 04:49:54;;;;;;;;;;;11.30;62.40;;;;;;5020629;28;92389;-42
2022/09/22 04:52:20;;;;;;;;;;;11.30;62.30;;;;;;5019235;28;94260;-42
2022/09/22 04:54:45;;;;;;;;;;;11.30;62.30;;;;;;5020298;28;92207;-42
2022/09/22 04:57:10;;;;;;;;;;;11.30;62.40;;;;;;5020409;28;92106;-42
2022/09/22 04:59:36;;;;;;;;;;;11.30;62.40;;;;;;5022925;28;93090;-42
2022/09/22 05:02:02;;;;;;;;;;;11.30;62.40;;;;;;5020383;28;92381;-42
2022/09/22 05:04:28;;;;;;;;;;;11.30;62.40;;;;;;5018549;28;93079;-42
2022/09/22 05:06:54;;;;;;;;;;;11.30;62.50;;;;;;5020415;28;92473;-42
2022/09/22 05:09:19;;;;;;;;;;;11.20;62.50;;;;;;5020462;28;92431;-42
2022/09/22 05:11:47;;;;;;;;;;;11.20;62.50;;;;;;5019587;28;93521;-42
2022/09/22 05:14:14;;;;;;;;;;;11.20;62.40;;;;;;5019943;28;92108;-42
2022/09/22 05:16:40;;;;;;;;;;;11.30;62.40;;;;;;5019457;28;93062;-42
2022/09/22 05:19:08;;;;;;;;;;;11.30;62.40;;;;;;5019579;28;92336;-42
2022/09/22 05:21:34;;;;;;;;;;;11.30;62.40;;;;;;5023017;28;92186;-42
2022/09/22 05:23:59;;;;;;;;;;;11.20;62.50;;;;;;5019458;28;93352;-42
2022/09/22 05:26:25;;;;;;;;;;;11.20;62.40;;;;;;5020026;28;92009;-42
2022/09/22 05:28:50;;;;;;;;;;;11.20;62.50;;;;;;5020021;28;92640;-42
2022/09/22 05:31:16;;;;;;;;;;;11.20;62.40;;;;;;5018882;28;93226;-42
2022/09/22 05:33:42;;;;;;;;;;;11.30;62.50;;;;;;5020468;28;91373;-42
2022/09/22 05:36:07;;;;;;;;;;;11.20;62.50;;;;;;5019722;28;91994;-42
2022/09/22 05:38:33;;;;;;;;;;;11.20;62.50;;;;;;5019297;28;93244;-42
2022/09/22 05:40:58;;;;;;;;;;;11.20;62.50;;;;;;5019048;28;93035;-42
2022/09/22 05:43:24;;;;;;;;;;;11.20;62.50;;;;;;5022438;28;93349;-42
2022/09/22 05:45:49;;;;;;;;;;;11.20;62.50;;;;;;5019519;28;92473;-42
2022/09/22 05:48:15;;;;;;;;;;;11.20;62.50;;;;;;5019674;28;92329;-42
2022/09/22 05:50:42;;;;;;;;;;;11.20;62.50;;;;;;5018960;28;93443;-42
2022/09/22 05:53:08;;;;;;;;;;;11.20;62.50;;;;;;5019539;28;92123;-42
2022/09/22 05:55:34;;;;;;;;;;;11.20;62.50;;;;;;5019361;28;92351;-42
2022/09/22 05:57:59;;;;;;;;;;;11.20;62.50;;;;;;5019538;28;92560;-42
2022/09/22 06:00:26;;;;;;;;;;;11.10;62.50;;;;;;5019324;28;92588;-42
2022/09/22 06:02:51;;;;;;;;;;;11.20;62.50;;;;;;5019274;28;92519;-42
2022/09/22 06:05:17;;;;;;;;;;;11.10;62.50;;;;;;5021266;28;93686;-42
2022/09/22 06:07:42;;;;;;;;;;;11.10;62.60;;;;;;5019300;28;93540;-42
2022/09/22 06:10:11;;;;;;;;;;;11.10;62.50;;;;;;5018391;28;92347;-42
2022/09/22 06:12:37;;;;;;;;;;;11.10;62.50;;;;;;5019026;28;92531;-42
2022/09/22 06:15:03;;;;;;;;;;;11.10;62.60;;;;;;5018501;28;92488;-42
2022/09/22 06:17:29;;;;;;;;;;;11.10;62.60;;;;;;5018883;28;93348;-42
2022/09/22 06:19:54;;;;;;;;;;;11.10;62.50;;;;;;5019340;28;92109;-42
2022/09/22 06:22:20;;;;;;;;;;;11.10;62.50;;;;;;5019678;28;92406;-42
2022/09/22 06:24:47;;;;;;;;;;;11.10;62.50;;;;;;5018356;28;92846;-42
2022/09/22 06:27:13;;;;;;;;;;;11.10;62.60;;;;;;5022139;28;92345;-42
2022/09/22 06:29:40;;;;;;;;;;;11.20;62.50;;;;;;5017632;28;94137;-42
2022/09/22 06:32:06;;;;;;;;;;;11.20;62.60;;;;;;5018797;28;92118;-42
2022/09/22 06:34:32;;;;;;;;;;;11.10;62.50;;;;;;5019110;28;92292;-42
2022/09/22 06:36:58;;;;;;;;;;;11.10;62.50;;;;;;5018332;28;93135;-42
2022/09/22 06:39:24;;;;;;;;;;;11.20;62.50;;;;;;5018915;28;92141;-42
2022/09/22 06:41:50;;;;;;;;;;;11.20;62.50;;;;;;5018870;28;92364;-42
2022/09/22 06:44:15;;;;;;;;;;;11.20;62.50;;;;;;5018294;28;92079;-42
2022/09/22 06:46:41;;;;;;;;;;;11.20;62.50;;;;;;5022553;28;91422;-42
2022/09/22 06:49:06;;;;;;;;;;;11.10;62.50;;;;;;5018722;28;93143;-42
2022/09/22 06:51:33;;;;;;;;;;;11.10;62.50;;;;;;5018911;28;92208;-42
2022/09/22 06:54:00;;;;;;;;;;;11.10;62.60;;;;;;5017955;28;94432;-42
2022/09/22 06:56:26;;;;;;;;;;;11.10;62.60;;;;;;5017909;28;93020;-42
2022/09/22 06:58:54;;;;;;;;;;;11.10;62.60;;;;;;5018875;28;93036;-42
2022/09/22 07:01:21;;;;;;;;;;;11.10;62.80;;;;;;5018602;28;92670;-42
2022/09/22 07:03:46;;;;;;;;;;;11.10;62.90;;;;;;5018035;28;93061;-42
2022/09/22 07:06:16;;;;;;;;;;;11.10;62.80;;;;;;5018691;28;92207;-42
2022/09/22 07:08:42;;;;;;;;;;;11.10;62.80;;;;;;5020501;28;92451;-42
2022/09/22 07:11:08;;;;;;;;;;;11.10;62.80;;;;;;5018945;28;91307;-42
2022/09/22 07:13:37;;;;;;;;;;;11.10;62.80;;;;;;5018137;28;92010;-42
2022/09/22 07:16:06;;;;;;;;;;;11.10;62.80;;;;;;5018136;28;92980;-42
2022/09/22 07:18:32;;;;;;;;;;;11.10;62.90;;;;;;5018034;28;93074;-42
2022/09/22 07:21:02;;;;;;;;;;;11.10;62.70;;;;;;5018440;28;93340;-42
2022/09/22 07:23:28;;;;;;;;;;;11.10;63.40;;;;;;5017824;28;92966;-42
2022/09/22 07:25:55;;;;;;;;;;;11.10;62.80;;;;;;5018423;28;92636;-42
2022/09/22 07:28:22;;;;;;;;;;;11.10;62.70;;;;;;5021242;28;92334;-42
2022/09/22 07:30:47;;;;;;;;;;;11.10;62.90;;;;;;5024246;28;92951;-42
2022/09/22 07:33:13;;;;;;;;;;;11.10;62.70;;;;;;5021534;28;92460;-42
2022/09/22 07:35:39;;;;;;;;;;;11.10;62.80;;;;;;5021452;28;92260;-42
2022/09/22 07:38:05;;;;;;;;;;;11.20;62.90;;;;;;5021473;28;92113;-42
2022/09/22 07:40:31;;;;;;;;;;;11.20;62.80;;;;;;5021177;28;92725;-42
2022/09/22 07:42:56;;;;;;;;;;;11.10;62.80;;;;;;5019789;28;93845;-42
2022/09/22 07:45:22;;;;;;;;;;;11.20;62.80;;;;;;5020989;28;92000;-42
2022/09/22 07:50:32;;;;;;;;;;;11.20;62.90;;;;;;5020505;28;92265;-42
2022/09/22 07:52:58;;;;;;;;;;;11.10;62.80;;;;;;5024062;28;92121;-42
2022/09/22 07:55:23;;;;;;;;;;;11.20;62.90;;;;;;5020279;28;93306;-42
2022/09/22 07:57:53;;;;;;;;;;;11.10;63.00;;;;;;5020693;28;92658;-42
2022/09/22 08:00:19;;;;;;;;;;;11.20;62.90;;;;;;5021185;28;92390;-42
2022/09/22 08:02:49;;;;;;;;;;;11.20;62.90;;;;;;5020127;28;93349;-42
2022/09/22 08:05:15;;;;;;;;;;;11.20;62.90;;;;;;5020539;28;92148;-42
2022/09/22 08:07:41;;;;;;;;;;;11.20;62.80;;;;;;5020542;28;92847;-42
2022/09/22 08:10:07;;;;;;;;;;;11.20;62.90;;;;;;5020182;28;93042;-42
2022/09/22 08:12:33;;;;;;;;;;;11.30;63.00;;;;;;5021141;28;92255;-42
2022/09/22 08:14:58;;;;;;;;;;;11.20;62.90;;;;;;5023599;28;92071;-42
2022/09/22 08:17:23;;;;;;;;;;;11.20;62.90;;;;;;5020997;28;92125;-42
2022/09/22 08:19:49;;;;;;;;;;;11.20;63.00;;;;;;5020838;28;92454;-42
2022/09/22 08:22:16;;;;;;;;;;;11.20;62.90;;;;;;5020349;28;93029;-42
2022/09/22 08:24:44;;;;;;;;;;;11.20;62.90;;;;;;5021266;28;91414;-42
2022/09/22 08:27:09;;;;;;;;;;;11.20;63.00;;;;;;5020832;28;92194;-42
2022/09/22 08:29:35;;;;;;;;;;;11.20;63.20;;;;;;5020456;28;93309;-42
2022/09/22 08:32:01;;;;;;;;;;;11.20;63.10;;;;;;5020115;28;93159;-42
2022/09/22 08:34:27;;;;;;;;;;;11.20;63.10;;;;;;5023352;28;93463;-42
2022/09/22 08:36:52;;;;;;;;;;;11.20;63.00;;;;;;5020434;28;92432;-42
2022/09/22 08:39:18;;;;;;;;;;;11.20;63.00;;;;;;5020405;28;92884;-42
2022/09/22 08:41:54;;;;;;;;;;;11.20;63.00;;;;;;5020121;28;93104;-42
2022/09/22 08:44:34;;;;;;;;;;;11.20;62.90;;;;;;5020750;28;92104;-42
2022/09/22 08:47:00;;;;;;;;;;;11.30;62.90;;;;;;5020658;28;92398;-42
2022/09/22 08:52:34;;;;;;;;;;;11.30;62.90;;;;;;5020611;28;92024;-42
2022/09/22 08:55:00;;;;;;;;;;;11.20;62.80;;;;;;5020252;28;92757;-42
2022/09/22 08:57:29;;;;;;;;;;;11.20;63.10;;;;;;5022333;28;93942;-42
2022/09/22 08:59:57;;;;;;;;;;;11.20;62.70;;;;;;5020312;28;93433;-42
2022/09/22 09:02:41;;;;;;;;;;;11.30;63.00;;;;;;5019384;28;93330;-42
2022/09/22 09:05:09;;;;;;;;;;;11.30;63.10;;;;;;5020439;28;92318;-42
2022/09/22 09:07:35;;;;;;;;;;;11.30;63.10;;;;;;5020295;28;92296;-42
2022/09/22 09:10:19;;;;;;;;;;;11.20;63.00;;;;;;5019350;28;92991;-42
2022/09/22 09:12:45;;;;;;;;;;;11.20;63.10;;;;;;5020001;28;92100;-42
2022/09/22 09:15:24;;;;;;;;;;;11.30;63.00;;;;;;5020664;28;92417;-42
2022/09/22 09:17:52;;;;;;;;;;;11.30;63.00;;;;;;5019576;28;92644;-42
2022/09/22 09:20:20;;;;;;;;;;;11.20;63.10;;;;;;5022649;28;92112;-42
2022/09/22 09:22:49;;;;;;;;;;;11.20;63.00;;;;;;5018585;28;93130;-42
2022/09/22 09:25:25;;;;;;;;;;;11.20;63.30;;;;;;5019643;28;92142;-42
2022/09/22 09:27:59;;;;;;;;;;;11.30;63.10;;;;;;5020195;28;92536;-42
2022/09/22 09:30:25;;;;;;;;;;;11.40;62.90;;;;;;5019265;28;93099;-42
2022/09/22 09:32:50;;;;;;;;;;;11.40;63.10;;;;;;5019704;28;92292;-42
2022/09/22 09:35:18;;;;;;;;;;;11.40;63.10;;;;;;5019508;28;92526;-42
2022/09/22 09:37:45;;;;;;;;;;;11.30;63.00;;;;;;5018931;28;93272;-42
2022/09/22 09:40:18;;;;;;;;;;;11.30;63.00;;;;;;5020092;28;91429;-42
2022/09/22 09:42:55;;;;;;;;;;;11.30;63.10;;;;;;5022370;28;91952;-42
2022/09/22 09:45:24;;;;;;;;;;;11.30;63.10;;;;;;5019740;28;92049;-42
2022/09/22 09:47:51;;;;;;;;;;;11.30;63.00;;;;;;5018944;28;92945;-42
2022/09/22 09:50:17;;;;;;;;;;;11.40;63.10;;;;;;5018248;28;93064;-42
2022/09/22 09:52:43;;;;;;;;;;;11.40;62.90;;;;;;5019604;28;92251;-42
2022/09/22 09:55:18;;;;;;;;;;;11.50;62.80;;;;;;5019785;28;92497;-42
2022/09/22 09:58:02;;;;;;;;;;;11.50;62.80;;;;;;5018990;28;92997;-42
2022/09/22 10:00:30;;;;;;;;;;;11.50;62.90;;;;;;5019396;28;92316;-42
2022/09/22 10:03:11;;;;;;;;;;;11.50;62.60;;;;;;5019094;28;93299;-42
2022/09/22 10:05:37;;;;;;;;;;;11.40;63.20;;;;;;5022595;28;92472;-42
2022/09/22 10:08:14;;;;;;;;;;;11.40;63.00;;;;;;5018910;28;92009;-42
2022/09/22 10:10:40;;;;;;;;;;;11.50;63.10;;;;;;5018959;28;93005;-42
2022/09/22 10:13:05;;;;;;;;;;;11.50;63.10;;;;;;5018806;28;93017;-42
2022/09/22 10:15:32;;;;;;;;;;;11.50;63.10;;;;;;5019047;28;93371;-42
2022/09/22 10:17:58;;;;;;;;;;;11.50;62.80;;;;;;5018650;28;93246;-42
2022/09/22 10:20:25;;;;;;;;;;;11.40;62.90;;;;;;5019046;28;92116;-42
2022/09/22 10:22:51;;;;;;;;;;;11.40;63.00;;;;;;5019209;28;92785;-42
2022/09/22 10:25:26;;;;;;;;;;;11.40;63.00;;;;;;5018759;28;93148;-42
2022/09/22 10:28:08;;;;;;;;;;;11.40;63.40;;;;;;5021989;28;92124;-42
2022/09/22 10:30:37;;;;;;;;;;;11.40;63.30;;;;;;5018975;28;92251;-42
2022/09/22 10:33:11;;;;;;;;;;;11.40;63.20;;;;;;5018998;28;92124;-42
2022/09/22 10:35:37;;;;;;;;;;;11.40;63.30;;;;;;5018719;28;92113;-42
2022/09/22 10:38:11;;;;;;;;;;;11.40;63.20;;;;;;5017840;28;94542;-42
2022/09/22 10:40:38;;;;;;;;;;;11.40;63.90;;;;;;5018761;28;92136;-42
2022/09/22 10:43:05;;;;;;;;;;;11.40;63.30;;;;;;5018860;28;92298;-42
2022/09/22 10:45:39;;;;;;;;;;;11.40;63.30;;;;;;5018265;28;93408;-42
2022/09/22 10:48:11;;;;;;;;;;;11.40;63.40;;;;;;5022231;28;92533;-42
2022/09/22 10:50:43;;;;;;;;;;;11.40;63.60;;;;;;5018215;28;93053;-42
2022/09/22 10:53:09;;;;;;;;;;;11.40;63.30;;;;;;5018408;28;92156;-42
2022/09/22 10:55:40;;;;;;;;;;;11.40;63.80;;;;;;5019221;28;92250;-42
2022/09/22 10:58:06;;;;;;;;;;;11.40;63.60;;;;;;5018217;28;93216;-42
2022/09/22 11:00:35;;;;;;;;;;;11.50;63.40;;;;;;5019330;28;92146;-42
2022/09/22 11:03:09;;;;;;;;;;;11.40;63.30;;;;;;5021426;28;92915;-42
2022/09/22 11:14:01;;;;;;;;;;;11.50;63.50;;;;;;5022018;28;92342;-42
2022/09/22 11:16:33;;;;;;;;;;;11.50;63.40;;;;;;5022002;28;92381;-42
2022/09/22 11:19:12;;;;;;;;;;;11.50;63.60;;;;;;5021389;28;92971;-42
2022/09/22 11:21:43;;;;;;;;;;;11.50;63.70;;;;;;5022226;28;91284;-42
2022/09/22 11:24:16;;;;;;;;;;;11.50;63.60;;;;;;5022022;28;92049;-42
2022/09/22 11:26:44;;;;;;;;;;;11.50;63.60;;;;;;5021291;28;92701;-42
2022/09/22 11:29:09;;;;;;;;;;;11.50;63.60;;;;;;5021261;28;93062;-42
2022/09/22 11:31:53;;;;;;;;;;;11.50;63.60;;;;;;5021731;28;93236;-42
2022/09/22 11:34:29;;;;;;;;;;;11.50;63.50;;;;;;5024429;28;93375;-42
2022/09/22 11:37:24;;;;;;;;;;;11.50;63.50;;;;;;5021105;28;92360;-42
2022/09/22 11:39:58;;;;;;;;;;;11.60;63.50;;;;;;5021306;28;93066;-42
2022/09/22 11:42:43;;;;;;;;;;;11.60;63.50;;;;;;5021575;28;92327;-42
2022/09/22 11:45:29;;;;;;;;;;;11.60;63.60;;;;;;5021550;28;92541;-42
2022/09/22 11:48:24;;;;;;;;;;;11.60;63.50;;;;;;5021720;28;92597;-42
2022/09/22 11:51:07;;;;;;;;;;;11.60;63.60;;;;;;5011547;28;92234;-42
2022/09/22 11:53:33;;;;;;;;;;;11.60;63.50;;;;;;5021475;28;92522;-42
2022/09/22 11:56:17;;;;;;;;;;;11.60;63.50;;;;;;5020036;28;94332;-42
2022/09/22 11:58:43;;;;;;;;;;;11.70;63.30;;;;;;5024657;28;92303;-42
2022/09/22 12:01:16;;;;;;;;;;;11.70;63.30;;;;;;5020726;28;92275;-42
2022/09/22 12:03:45;;;;;;;;;;;11.70;63.50;;;;;;5021220;28;92127;-40
2022/09/22 12:06:13;;;;;;;;;;;11.70;63.30;;;;;;5020868;28;92328;-42
2022/09/22 12:08:54;;;;;;;;;;;11.70;63.40;;;;;;5019812;28;93240;-42
2022/09/22 12:11:21;;;;;;;;;;;11.80;63.20;;;;;;5021288;28;92129;-42
2022/09/22 12:13:52;;;;;;;;;;;11.80;63.10;;;;;;5020987;28;92084;-42
2022/09/22 12:16:29;;;;;;;;;;;11.80;63.10;;;;;;5020716;28;93039;-42
2022/09/22 12:19:01;;;;;;;;;;;11.80;63.10;;;;;;5020727;28;92632;-42
2022/09/22 12:21:33;;;;;;;;;;;11.80;63.20;;;;;;5022877;28;93105;-42
2022/09/22 12:24:00;;;;;;;;;;;11.90;63.10;;;;;;5021029;28;92618;-42
2022/09/22 12:26:28;;;;;;;;;;;11.80;63.20;;;;;;5020635;28;92681;-42
2022/09/22 12:28:54;;;;;;;;;;;11.80;63.30;;;;;;5020282;28;92294;-43
2022/09/22 12:31:20;;;;;;;;;;;11.80;63.60;;;;;;5020783;28;92224;-42
2022/09/22 12:33:49;;;;;;;;;;;11.80;63.40;;;;;;5020757;28;92037;-42
2022/09/22 12:36:15;;;;;;;;;;;11.80;63.60;;;;;;5020063;28;93414;-42
2022/09/22 12:38:42;;;;;;;;;;;11.80;63.60;;;;;;5021006;28;91457;-42
2022/09/22 12:41:09;;;;;;;;;;;11.70;63.70;;;;;;5020508;28;93863;-42
2022/09/22 12:43:35;;;;;;;;;;;11.70;63.70;;;;;;5023216;28;92986;-42
2022/09/22 12:46:02;;;;;;;;;;;11.70;63.90;;;;;;5019789;28;93003;-42
2022/09/22 12:48:33;;;;;;;;;;;11.70;63.90;;;;;;5019985;28;93072;-42
2022/09/22 12:51:13;;;;;;;;;;;11.70;64.00;;;;;;5020422;28;92254;-42
2022/09/22 12:53:39;;;;;;;;;;;11.70;64.00;;;;;;5020557;28;92463;-43
2022/09/22 12:56:24;;;;;;;;;;;11.70;64.10;;;;;;5019874;28;93136;-42
2022/09/22 12:58:50;;;;;;;;;;;11.80;63.90;;;;;;5020186;28;92121;-42
2022/09/22 13:01:27;;;;;;;;;;;11.80;63.70;;;;;;5020553;28;92316;-42
2022/09/22 13:04:01;;;;;;;;;;;11.80;63.60;;;;;;5023537;28;92338;-42
2022/09/22 13:06:27;;;;;;;;;;;11.90;63.70;;;;;;5020527;28;92036;-42
2022/09/22 13:08:52;;;;;;;;;;;12.00;63.50;;;;;;5019247;28;93042;-42
2022/09/22 13:11:18;;;;;;;;;;;12.00;63.30;;;;;;5019446;28;93076;-42
2022/09/22 13:13:49;;;;;;;;;;;12.00;63.20;;;;;;5020235;28;93192;-42
2022/09/22 13:16:14;;;;;;;;;;;12.00;63.20;;;;;;5019379;28;93129;-42
2022/09/22 13:18:43;;;;;;;;;;;12.10;63.30;;;;;;5020131;28;92148;-42
2022/09/22 13:21:12;;;;;;;;;;;12.00;63.40;;;;;;5019853;28;92390;-42
2022/09/22 13:23:52;;;;;;;;;;;12.00;63.50;;;;;;5019090;28;93351;-42
2022/09/22 13:26:19;;;;;;;;;;;12.10;63.30;;;;;;5022926;28;91961;-42
2022/09/22 13:28:57;;;;;;;;;;;12.20;63.10;;;;;;5019766;28;92372;-42
2022/09/22 13:31:23;;;;;;;;;;;12.20;63.00;;;;;;5020161;28;92038;-42
2022/09/22 13:33:48;;;;;;;;;;;12.20;63.00;;;;;;5019680;28;92491;-42
2022/09/22 13:36:18;;;;;;;;;;;12.30;62.70;;;;;;5018197;28;94149;-42
2022/09/22 13:38:49;;;;;;;;;;;12.30;62.70;;;;;;5019640;28;92172;-42
2022/09/22 13:41:17;;;;;;;;;;;12.30;62.80;;;;;;5019713;28;92387;-42
2022/09/22 13:43:45;;;;;;;;;;;12.30;62.80;;;;;;5019142;28;93132;-42
2022/09/22 13:46:25;;;;;;;;;;;12.30;62.80;;;;;;5019565;28;92243;-43
2022/09/22 13:48:52;;;;;;;;;;;12.30;62.80;;;;;;5021884;28;93125;-42
2022/09/22 13:51:18;;;;;;;;;;;12.30;62.80;;;;;;5019326;28;92148;-42
2022/09/22 13:53:46;;;;;;;;;;;12.30;62.80;;;;;;5019998;28;92517;-42
2022/09/22 13:56:14;;;;;;;;;;;12.30;62.80;;;;;;5018708;28;93000;-42
2022/09/22 13:58:41;;;;;;;;;;;12.30;62.70;;;;;;5019579;28;91980;-42
2022/09/22 14:01:18;;;;;;;;;;;12.40;62.70;;;;;;5018669;28;92969;-42
2022/09/22 14:03:44;;;;;;;;;;;12.40;62.80;;;;;;5018908;28;92957;-43
2022/09/22 14:06:12;;;;;;;;;;;12.40;62.70;;;;;;5019231;28;92068;-42
2022/09/22 14:08:38;;;;;;;;;;;12.40;62.80;;;;;;5018710;28;92409;-42
2022/09/22 14:11:06;;;;;;;;;;;12.40;62.70;;;;;;5021878;28;93429;-42
2022/09/22 14:13:36;;;;;;;;;;;12.40;62.80;;;;;;5019182;28;92063;-42
2022/09/22 14:16:09;;;;;;;;;;;12.40;62.70;;;;;;5018193;28;93042;-42
2022/09/22 14:18:38;;;;;;;;;;;12.40;62.70;;;;;;5019906;28;91306;-42
2022/09/22 14:21:06;;;;;;;;;;;12.40;62.70;;;;;;5018984;28;92127;-43
2022/09/22 14:23:32;;;;;;;;;;;12.40;62.70;;;;;;5018650;28;93544;-43
2022/09/22 14:25:59;;;;;;;;;;;12.50;62.80;;;;;;5018631;28;93103;-43
2022/09/22 14:28:26;;;;;;;;;;;12.40;62.80;;;;;;5018915;28;93464;-43
2022/09/22 14:30:52;;;;;;;;;;;12.40;62.90;;;;;;5018697;28;93201;-43
2022/09/22 14:33:26;;;;;;;;;;;12.40;62.90;;;;;;5022321;28;92151;-42
2022/09/22 14:35:59;;;;;;;;;;;12.40;63.20;;;;;;5019550;28;93056;-42
2022/09/22 14:38:26;;;;;;;;;;;12.50;63.10;;;;;;5022560;28;92274;-42
2022/09/22 14:40:52;;;;;;;;;;;12.50;63.20;;;;;;5022558;28;92436;-42